sensor_id;sensor_type;location;lat;lon;timestamp;temperature;humidity
20726;DHT22;10524;48.132;8.518;2023-05-17T00:02:01;3.80;99.90
20726;DHT22;10524;48.132;8.518;2023-05-17T00:04:26;3.80;99.90
20726;DHT22;10524;48.132;8.518;2023-05-17T00:06:52;3.60;99.90
20726;DHT22;10524;48.132;8.518;2023-05-17T00:09:18;3.40;99.90
20726;DHT22;10524;48.132;8.518;2023-05-17T00:11:43;3.30;99.90
20726;DHT22;10524;48.132;8.518;2023-05-17T00:14:09;3.20;99.90
20726;DHT22;10524;48.132;8.518;2023-05-17T00:16:36;3.10;99.90
20726;DHT22;10524;48.132;8.518;2023-05-17T00:19:02;3.10;99.90
20726;DHT22;10524;48.132;8.518;2023-05-17T00:21:27;3.00;99.90
20726;DHT22;10524;48.132;8.518;2023-05-17T00:23:53;3.00;99.90
20726;DHT22;10524;48.132;8.518;2023-05-17T00:26:19;2.90;99.90
20726;DHT22;10524;48.132;8.518;2023-05-17T00:28:44;2.80;99.90
20726;DHT22;10524;48.132;8.518;2023-05-17T00:31:10;2.80;99.90
20726;DHT22;10524;48.132;8.518;2023-05-17T00:33:36;2.70;99.90
20726;DHT22;10524;48.132;8.518;2023-05-17T00:36:01;2.60;99.90
20726;DHT22;10524;48.132;8.518;2023-05-17T00:38:27;2.60;99.90
20726;DHT22;10524;48.132;8.518;2023-05-17T00:40:53;2.50;99.90
20726;DHT22;10524;48.132;8.518;2023-05-17T00:43:18;2.50;99.90
20726;DHT22;10524;48.132;8.518;2023-05-17T00:45:44;2.40;99.90
20726;DHT22;10524;48.132;8.518;2023-05-17T00:48:12;2.40;99.90
20726;DHT22;10524;48.132;8.518;2023-05-17T00:50:38;2.40;99.90
20726;DHT22;10524;48.132;8.518;2023-05-17T00:53:04;2.40;99.90
20726;DHT22;10524;48.132;8.518;2023-05-17T00:55:29;2.30;99.90
20726;DHT22;10524;48.132;8.518;2023-05-17T00:57:55;2.30;99.90
20726;DHT22;10524;48.132;8.518;2023-05-17T01:00:21;2.30;99.90
20726;DHT22;10524;48.132;8.518;2023-05-17T01:02:47;2.20;99.90
20726;DHT22;10524;48.132;8.518;2023-05-17T01:05:13;2.20;99.90
20726;DHT22;10524;48.132;8.518;2023-05-17T01:07:39;2.20;99.90
20726;DHT22;10524;48.132;8.518;2023-05-17T01:10:06;2.10;99.90
20726;DHT22;10524;48.132;8.518;2023-05-17T01:12:54;2.00;99.90
20726;DHT22;10524;48.132;8.518;2023-05-17T01:15:29;1.90;99.90
20726;DHT22;10524;48.132;8.518;2023-05-17T01:20:30;1.90;99.90
20726;DHT22;10524;48.132;8.518;2023-05-17T01:26:03;1.90;99.90
20726;DHT22;10524;48.132;8.518;2023-05-17T01:28:30;1.80;99.90
20726;DHT22;10524;48.132;8.518;2023-05-17T01:31:01;1.70;99.90
20726;DHT22;10524;48.132;8.518;2023-05-17T01:33:27;1.70;99.90
20726;DHT22;10524;48.132;8.518;2023-05-17T01:35:53;1.70;99.90
20726;DHT22;10524;48.132;8.518;2023-05-17T01:38:19;1.60;99.90
20726;DHT22;10524;48.132;8.518;2023-05-17T01:43:24;1.50;99.90
20726;DHT22;10524;48.132;8.518;2023-05-17T01:46:28;1.40;99.90
20726;DHT22;10524;48.132;8.518;2023-05-17T01:49:20;1.40;99.90
20726;DHT22;10524;48.132;8.518;2023-05-17T01:52:02;1.30;99.90
20726;DHT22;10524;48.132;8.518;2023-05-17T01:55:25;1.20;99.90
20726;DHT22;10524;48.132;8.518;2023-05-17T01:57:34;1.20;99.90
20726;DHT22;10524;48.132;8.518;2023-05-17T02:00:04;1.10;99.90
20726;DHT22;10524;48.132;8.518;2023-05-17T02:02:30;1.10;99.90
20726;DHT22;10524;48.132;8.518;2023-05-17T02:04:56;1.10;99.90
20726;DHT22;10524;48.132;8.518;2023-05-17T02:07:22;1.10;99.90
20726;DHT22;10524;48.132;8.518;2023-05-17T02:09:48;1.10;99.90
20726;DHT22;10524;48.132;8.518;2023-05-17T02:12:14;1.10;99.90
20726;DHT22;10524;48.132;8.518;2023-05-17T02:14:40;1.10;99.90
20726;DHT22;10524;48.132;8.518;2023-05-17T02:17:05;1.00;99.90
20726;DHT22;10524;48.132;8.518;2023-05-17T02:19:31;1.00;99.90
20726;DHT22;10524;48.132;8.518;2023-05-17T02:21:57;0.90;99.90
20726;DHT22;10524;48.132;8.518;2023-05-17T02:24:23;1.00;99.90
20726;DHT22;10524;48.132;8.518;2023-05-17T02:26:49;1.00;99.90
20726;DHT22;10524;48.132;8.518;2023-05-17T02:29:14;1.00;99.90
20726;DHT22;10524;48.132;8.518;2023-05-17T02:31:40;0.90;99.90
20726;DHT22;10524;48.132;8.518;2023-05-17T02:34:06;0.80;99.90
20726;DHT22;10524;48.132;8.518;2023-05-17T02:36:31;0.90;99.90
20726;DHT22;10524;48.132;8.518;2023-05-17T02:38:57;0.80;99.90
20726;DHT22;10524;48.132;8.518;2023-05-17T02:41:23;0.80;99.90
20726;DHT22;10524;48.132;8.518;2023-05-17T02:43:49;0.90;99.90
20726;DHT22;10524;48.132;8.518;2023-05-17T02:46:15;0.90;99.90
20726;DHT22;10524;48.132;8.518;2023-05-17T02:48:40;0.90;99.90
20726;DHT22;10524;48.132;8.518;2023-05-17T02:51:06;0.90;99.90
20726;DHT22;10524;48.132;8.518;2023-05-17T02:53:31;0.80;99.90
20726;DHT22;10524;48.132;8.518;2023-05-17T02:55:57;0.70;99.90
20726;DHT22;10524;48.132;8.518;2023-05-17T02:58:24;0.80;99.90
20726;DHT22;10524;48.132;8.518;2023-05-17T03:00:49;0.70;99.90
20726;DHT22;10524;48.132;8.518;2023-05-17T03:03:15;0.80;99.90
20726;DHT22;10524;48.132;8.518;2023-05-17T03:05:41;0.90;99.90
20726;DHT22;10524;48.132;8.518;2023-05-17T03:08:07;0.80;99.90
20726;DHT22;10524;48.132;8.518;2023-05-17T03:10:33;0.80;99.90
20726;DHT22;10524;48.132;8.518;2023-05-17T03:12:58;0.90;99.90
20726;DHT22;10524;48.132;8.518;2023-05-17T03:15:24;0.90;99.90
20726;DHT22;10524;48.132;8.518;2023-05-17T03:17:56;0.80;99.90
20726;DHT22;10524;48.132;8.518;2023-05-17T03:20:22;0.70;99.90
20726;DHT22;10524;48.132;8.518;2023-05-17T03:22:48;0.70;99.90
20726;DHT22;10524;48.132;8.518;2023-05-17T03:25:14;0.80;99.90
20726;DHT22;10524;48.132;8.518;2023-05-17T03:27:40;0.70;99.90
20726;DHT22;10524;48.132;8.518;2023-05-17T03:30:06;0.80;99.90
20726;DHT22;10524;48.132;8.518;2023-05-17T03:32:32;0.80;99.90
20726;DHT22;10524;48.132;8.518;2023-05-17T03:34:58;0.80;99.90
20726;DHT22;10524;48.132;8.518;2023-05-17T03:37:24;0.80;99.90
20726;DHT22;10524;48.132;8.518;2023-05-17T03:39:50;0.80;99.90
20726;DHT22;10524;48.132;8.518;2023-05-17T03:42:15;0.70;99.90
20726;DHT22;10524;48.132;8.518;2023-05-17T03:44:41;0.70;99.90
20726;DHT22;10524;48.132;8.518;2023-05-17T03:47:07;0.70;99.90
20726;DHT22;10524;48.132;8.518;2023-05-17T03:49:32;0.70;99.90
20726;DHT22;10524;48.132;8.518;2023-05-17T03:51:58;0.70;99.90
20726;DHT22;10524;48.132;8.518;2023-05-17T03:54:24;0.70;99.90
20726;DHT22;10524;48.132;8.518;2023-05-17T03:56:49;0.70;99.90
20726;DHT22;10524;48.132;8.518;2023-05-17T03:59:15;0.80;99.90
20726;DHT22;10524;48.132;8.518;2023-05-17T04:01:42;0.80;99.90
20726;DHT22;10524;48.132;8.518;2023-05-17T04:04:08;0.70;99.90
20726;DHT22;10524;48.132;8.518;2023-05-17T04:06:34;0.70;99.90
20726;DHT22;10524;48.132;8.518;2023-05-17T04:08:59;0.70;99.90
20726;DHT22;10524;48.132;8.518;2023-05-17T04:11:25;0.70;99.90
20726;DHT22;10524;48.132;8.518;2023-05-17T04:13:52;0.70;99.90
20726;DHT22;10524;48.132;8.518;2023-05-17T04:16:18;0.70;99.90
20726;DHT22;10524;48.132;8.518;2023-05-17T04:18:44;0.80;99.90
20726;DHT22;10524;48.132;8.518;2023-05-17T04:21:10;0.80;99.90
20726;DHT22;10524;48.132;8.518;2023-05-17T04:23:36;0.90;99.90
20726;DHT22;10524;48.132;8.518;2023-05-17T04:26:02;0.90;99.90
20726;DHT22;10524;48.132;8.518;2023-05-17T04:28:29;1.10;99.90
20726;DHT22;10524;48.132;8.518;2023-05-17T04:30:55;1.50;99.90
20726;DHT22;10524;48.132;8.518;2023-05-17T04:33:21;2.10;99.90
20726;DHT22;10524;48.132;8.518;2023-05-17T04:35:50;2.50;99.90
20726;DHT22;10524;48.132;8.518;2023-05-17T04:38:18;2.70;99.90
20726;DHT22;10524;48.132;8.518;2023-05-17T04:40:44;2.80;99.90
20726;DHT22;10524;48.132;8.518;2023-05-17T04:43:10;2.70;99.90
20726;DHT22;10524;48.132;8.518;2023-05-17T04:45:35;2.90;99.90
20726;DHT22;10524;48.132;8.518;2023-05-17T04:48:02;3.30;99.90
20726;DHT22;10524;48.132;8.518;2023-05-17T04:50:28;3.80;99.90
20726;DHT22;10524;48.132;8.518;2023-05-17T04:52:54;4.30;99.90
20726;DHT22;10524;48.132;8.518;2023-05-17T04:55:19;4.70;99.90
20726;DHT22;10524;48.132;8.518;2023-05-17T04:57:45;5.00;99.90
20726;DHT22;10524;48.132;8.518;2023-05-17T05:00:11;5.10;99.90
20726;DHT22;10524;48.132;8.518;2023-05-17T05:02:38;5.40;99.90
20726;DHT22;10524;48.132;8.518;2023-05-17T05:05:04;6.00;99.90
20726;DHT22;10524;48.132;8.518;2023-05-17T05:07:31;6.50;99.90
20726;DHT22;10524;48.132;8.518;2023-05-17T05:09:56;7.00;99.90
20726;DHT22;10524;48.132;8.518;2023-05-17T05:12:23;7.50;99.90
20726;DHT22;10524;48.132;8.518;2023-05-17T05:14:49;7.90;99.90
20726;DHT22;10524;48.132;8.518;2023-05-17T05:17:14;8.10;99.90
20726;DHT22;10524;48.132;8.518;2023-05-17T05:19:40;8.10;99.90
20726;DHT22;10524;48.132;8.518;2023-05-17T05:22:06;8.40;99.90
20726;DHT22;10524;48.132;8.518;2023-05-17T05:24:31;8.70;99.90
20726;DHT22;10524;48.132;8.518;2023-05-17T05:26:57;8.80;99.90
20726;DHT22;10524;48.132;8.518;2023-05-17T05:29:22;8.90;99.90
20726;DHT22;10524;48.132;8.518;2023-05-17T05:31:48;9.00;99.90
20726;DHT22;10524;48.132;8.518;2023-05-17T05:34:14;8.90;99.90
20726;DHT22;10524;48.132;8.518;2023-05-17T05:36:39;9.30;99.90
20726;DHT22;10524;48.132;8.518;2023-05-17T05:39:05;9.60;99.90
20726;DHT22;10524;48.132;8.518;2023-05-17T05:41:32;9.40;99.90
20726;DHT22;10524;48.132;8.518;2023-05-17T05:43:57;9.00;99.90
20726;DHT22;10524;48.132;8.518;2023-05-17T05:46:24;9.20;99.90
20726;DHT22;10524;48.132;8.518;2023-05-17T05:48:49;9.60;99.90
20726;DHT22;10524;48.132;8.518;2023-05-17T05:51:15;9.80;99.90
20726;DHT22;10524;48.132;8.518;2023-05-17T05:53:41;10.00;99.90
20726;DHT22;10524;48.132;8.518;2023-05-17T05:56:06;10.30;99.90
20726;DHT22;10524;48.132;8.518;2023-05-17T05:58:32;10.90;99.90
20726;DHT22;10524;48.132;8.518;2023-05-17T06:00:58;10.70;99.90
20726;DHT22;10524;48.132;8.518;2023-05-17T06:03:24;10.20;99.90
20726;DHT22;10524;48.132;8.518;2023-05-17T06:05:50;10.10;99.90
20726;DHT22;10524;48.132;8.518;2023-05-17T06:08:16;10.30;99.90
20726;DHT22;10524;48.132;8.518;2023-05-17T06:10:41;11.00;99.90
20726;DHT22;10524;48.132;8.518;2023-05-17T06:13:07;11.50;99.90
20726;DHT22;10524;48.132;8.518;2023-05-17T06:15:32;11.00;99.90
20726;DHT22;10524;48.132;8.518;2023-05-17T06:17:58;10.50;99.90
20726;DHT22;10524;48.132;8.518;2023-05-17T06:20:24;9.90;99.90
20726;DHT22;10524;48.132;8.518;2023-05-17T06:22:50;9.20;99.90
20726;DHT22;10524;48.132;8.518;2023-05-17T06:25:15;8.70;99.90
20726;DHT22;10524;48.132;8.518;2023-05-17T06:27:41;8.80;99.90
20726;DHT22;10524;48.132;8.518;2023-05-17T06:30:07;8.80;99.90
20726;DHT22;10524;48.132;8.518;2023-05-17T06:32:34;9.00;99.90
20726;DHT22;10524;48.132;8.518;2023-05-17T06:35:00;9.20;99.90
20726;DHT22;10524;48.132;8.518;2023-05-17T06:37:26;9.40;99.90
20726;DHT22;10524;48.132;8.518;2023-05-17T06:39:52;9.20;99.90
20726;DHT22;10524;48.132;8.518;2023-05-17T06:42:18;9.20;99.90
20726;DHT22;10524;48.132;8.518;2023-05-17T06:44:43;9.20;99.90
20726;DHT22;10524;48.132;8.518;2023-05-17T06:47:09;9.60;99.90
20726;DHT22;10524;48.132;8.518;2023-05-17T06:49:36;9.60;99.90
20726;DHT22;10524;48.132;8.518;2023-05-17T06:52:02;10.20;99.90
20726;DHT22;10524;48.132;8.518;2023-05-17T06:54:31;10.80;99.90
20726;DHT22;10524;48.132;8.518;2023-05-17T06:57:00;11.00;99.90
20726;DHT22;10524;48.132;8.518;2023-05-17T06:59:26;10.80;99.90
20726;DHT22;10524;48.132;8.518;2023-05-17T07:01:52;10.90;99.90
20726;DHT22;10524;48.132;8.518;2023-05-17T07:04:18;11.30;99.90
20726;DHT22;10524;48.132;8.518;2023-05-17T07:06:43;12.00;99.90
20726;DHT22;10524;48.132;8.518;2023-05-17T07:09:09;12.50;99.90
20726;DHT22;10524;48.132;8.518;2023-05-17T07:11:34;13.10;99.90
20726;DHT22;10524;48.132;8.518;2023-05-17T07:14:00;14.00;99.90
20726;DHT22;10524;48.132;8.518;2023-05-17T07:16:26;15.40;99.90
20726;DHT22;10524;48.132;8.518;2023-05-17T07:18:52;15.10;99.90
20726;DHT22;10524;48.132;8.518;2023-05-17T07:21:17;14.80;99.90
20726;DHT22;10524;48.132;8.518;2023-05-17T07:23:43;14.80;99.90
20726;DHT22;10524;48.132;8.518;2023-05-17T07:26:08;15.60;99.90
20726;DHT22;10524;48.132;8.518;2023-05-17T07:28:34;15.30;99.90
20726;DHT22;10524;48.132;8.518;2023-05-17T07:31:00;15.10;99.90
20726;DHT22;10524;48.132;8.518;2023-05-17T07:33:26;14.60;99.90
20726;DHT22;10524;48.132;8.518;2023-05-17T07:35:51;14.60;99.90
20726;DHT22;10524;48.132;8.518;2023-05-17T07:38:18;15.60;99.90
20726;DHT22;10524;48.132;8.518;2023-05-17T07:40:43;15.90;99.90
20726;DHT22;10524;48.132;8.518;2023-05-17T07:43:09;14.10;99.90
20726;DHT22;10524;48.132;8.518;2023-05-17T07:45:34;15.20;99.90
20726;DHT22;10524;48.132;8.518;2023-05-17T07:48:00;15.90;99.90
20726;DHT22;10524;48.132;8.518;2023-05-17T07:50:26;15.60;99.90
20726;DHT22;10524;48.132;8.518;2023-05-17T07:52:52;16.20;99.90
20726;DHT22;10524;48.132;8.518;2023-05-17T07:55:18;16.60;99.90
20726;DHT22;10524;48.132;8.518;2023-05-17T07:57:45;16.90;99.90
20726;DHT22;10524;48.132;8.518;2023-05-17T08:00:12;15.40;99.90
20726;DHT22;10524;48.132;8.518;2023-05-17T08:02:39;13.80;99.90
20726;DHT22;10524;48.132;8.518;2023-05-17T08:05:05;13.80;99.90
20726;DHT22;10524;48.132;8.518;2023-05-17T08:07:31;13.00;99.90
20726;DHT22;10524;48.132;8.518;2023-05-17T08:09:57;12.30;99.90
20726;DHT22;10524;48.132;8.518;2023-05-17T08:12:23;11.40;99.90
20726;DHT22;10524;48.132;8.518;2023-05-17T08:14:48;11.20;99.90
20726;DHT22;10524;48.132;8.518;2023-05-17T08:17:14;11.80;99.90
20726;DHT22;10524;48.132;8.518;2023-05-17T08:19:40;13.50;99.90
20726;DHT22;10524;48.132;8.518;2023-05-17T08:22:05;14.50;99.90
20726;DHT22;10524;48.132;8.518;2023-05-17T08:24:31;15.50;99.90
20726;DHT22;10524;48.132;8.518;2023-05-17T08:26:56;17.20;99.90
20726;DHT22;10524;48.132;8.518;2023-05-17T08:29:22;15.50;99.90
20726;DHT22;10524;48.132;8.518;2023-05-17T08:31:48;13.70;99.90
20726;DHT22;10524;48.132;8.518;2023-05-17T08:34:14;13.20;99.90
20726;DHT22;10524;48.132;8.518;2023-05-17T08:36:39;12.90;99.90
20726;DHT22;10524;48.132;8.518;2023-05-17T08:39:05;11.70;99.90
20726;DHT22;10524;48.132;8.518;2023-05-17T08:41:32;12.00;99.90
20726;DHT22;10524;48.132;8.518;2023-05-17T08:43:58;12.90;99.90
20726;DHT22;10524;48.132;8.518;2023-05-17T08:46:25;14.50;99.90
20726;DHT22;10524;48.132;8.518;2023-05-17T08:48:52;14.90;99.90
20726;DHT22;10524;48.132;8.518;2023-05-17T08:51:20;15.00;99.90
20726;DHT22;10524;48.132;8.518;2023-05-17T08:53:47;14.80;99.90
20726;DHT22;10524;48.132;8.518;2023-05-17T08:56:15;14.10;99.90
20726;DHT22;10524;48.132;8.518;2023-05-17T08:58:44;13.50;99.90
20726;DHT22;10524;48.132;8.518;2023-05-17T09:01:12;12.20;99.90
20726;DHT22;10524;48.132;8.518;2023-05-17T09:03:40;11.80;99.90
20726;DHT22;10524;48.132;8.518;2023-05-17T09:06:07;11.70;99.90
20726;DHT22;10524;48.132;8.518;2023-05-17T09:08:36;12.40;99.90
20726;DHT22;10524;48.132;8.518;2023-05-17T09:11:02;12.80;99.90
20726;DHT22;10524;48.132;8.518;2023-05-17T09:13:28;14.00;99.90
20726;DHT22;10524;48.132;8.518;2023-05-17T09:15:53;14.20;99.90
20726;DHT22;10524;48.132;8.518;2023-05-17T09:18:31;14.30;99.90
20726;DHT22;10524;48.132;8.518;2023-05-17T09:21:01;15.10;99.90
20726;DHT22;10524;48.132;8.518;2023-05-17T09:23:30;14.20;99.90
20726;DHT22;10524;48.132;8.518;2023-05-17T09:26:05;14.10;99.90
20726;DHT22;10524;48.132;8.518;2023-05-17T09:28:40;12.90;99.90
20726;DHT22;10524;48.132;8.518;2023-05-17T09:31:07;11.90;99.90
20726;DHT22;10524;48.132;8.518;2023-05-17T09:33:44;11.70;99.90
20726;DHT22;10524;48.132;8.518;2023-05-17T09:36:17;13.00;99.90
20726;DHT22;10524;48.132;8.518;2023-05-17T09:38:59;13.60;99.90
20726;DHT22;10524;48.132;8.518;2023-05-17T09:41:30;13.30;99.90
20726;DHT22;10524;48.132;8.518;2023-05-17T09:44:00;13.80;99.90
20726;DHT22;10524;48.132;8.518;2023-05-17T09:46:27;13.50;99.90
20726;DHT22;10524;48.132;8.518;2023-05-17T09:48:54;12.80;99.90
20726;DHT22;10524;48.132;8.518;2023-05-17T09:51:45;13.50;99.90
20726;DHT22;10524;48.132;8.518;2023-05-17T09:54:11;12.50;99.90
20726;DHT22;10524;48.132;8.518;2023-05-17T09:56:38;11.80;99.90
20726;DHT22;10524;48.132;8.518;2023-05-17T09:59:10;12.10;99.90
20726;DHT22;10524;48.132;8.518;2023-05-17T10:01:36;12.30;99.90
20726;DHT22;10524;48.132;8.518;2023-05-17T10:04:05;12.40;99.90
20726;DHT22;10524;48.132;8.518;2023-05-17T10:06:33;12.30;99.90
20726;DHT22;10524;48.132;8.518;2023-05-17T10:09:01;11.90;99.90
20726;DHT22;10524;48.132;8.518;2023-05-17T10:11:29;14.00;99.90
20726;DHT22;10524;48.132;8.518;2023-05-17T10:14:12;14.20;99.90
20726;DHT22;10524;48.132;8.518;2023-05-17T10:16:39;13.00;99.90
20726;DHT22;10524;48.132;8.518;2023-05-17T10:19:05;12.80;99.90
20726;DHT22;10524;48.132;8.518;2023-05-17T10:21:31;12.30;99.90
20726;DHT22;10524;48.132;8.518;2023-05-17T10:23:59;13.70;99.90
20726;DHT22;10524;48.132;8.518;2023-05-17T10:26:26;16.60;99.90
20726;DHT22;10524;48.132;8.518;2023-05-17T10:28:57;16.30;99.90
20726;DHT22;10524;48.132;8.518;2023-05-17T10:31:30;15.70;99.90
20726;DHT22;10524;48.132;8.518;2023-05-17T10:34:00;15.00;99.90
20726;DHT22;10524;48.132;8.518;2023-05-17T10:36:26;14.70;99.90
20726;DHT22;10524;48.132;8.518;2023-05-17T10:38:52;15.30;99.90
20726;DHT22;10524;48.132;8.518;2023-05-17T10:41:21;14.40;99.90
20726;DHT22;10524;48.132;8.518;2023-05-17T10:43:48;13.60;99.90
20726;DHT22;10524;48.132;8.518;2023-05-17T10:46:16;12.80;99.90
20726;DHT22;10524;48.132;8.518;2023-05-17T10:48:50;12.20;99.90
20726;DHT22;10524;48.132;8.518;2023-05-17T10:51:25;12.80;99.90
20726;DHT22;10524;48.132;8.518;2023-05-17T10:54:10;15.20;99.90
20726;DHT22;10524;48.132;8.518;2023-05-17T10:56:41;17.50;99.90
20726;DHT22;10524;48.132;8.518;2023-05-17T11:04:21;11.80;99.90
20726;DHT22;10524;48.132;8.518;2023-05-17T11:06:51;11.00;99.90
20726;DHT22;10524;48.132;8.518;2023-05-17T11:09:21;11.50;99.90
20726;DHT22;10524;48.132;8.518;2023-05-17T11:12:05;13.40;99.90
20726;DHT22;10524;48.132;8.518;2023-05-17T11:17:18;17.30;99.90
20726;DHT22;10524;48.132;8.518;2023-05-17T11:22:22;19.20;99.90
20726;DHT22;10524;48.132;8.518;2023-05-17T11:24:50;16.10;99.90
20726;DHT22;10524;48.132;8.518;2023-05-17T11:27:20;16.40;99.90
20726;DHT22;10524;48.132;8.518;2023-05-17T11:29:52;16.40;99.90
20726;DHT22;10524;48.132;8.518;2023-05-17T11:32:26;17.80;99.90
20726;DHT22;10524;48.132;8.518;2023-05-17T11:34:52;16.90;99.90
20726;DHT22;10524;48.132;8.518;2023-05-17T11:37:25;15.10;99.90
20726;DHT22;10524;48.132;8.518;2023-05-17T11:40:24;14.90;99.90
20726;DHT22;10524;48.132;8.518;2023-05-17T11:43:11;16.70;99.90
20726;DHT22;10524;48.132;8.518;2023-05-17T11:45:46;15.80;99.90
20726;DHT22;10524;48.132;8.518;2023-05-17T11:48:14;15.90;99.90
20726;DHT22;10524;48.132;8.518;2023-05-17T11:50:41;17.20;99.90
20726;DHT22;10524;48.132;8.518;2023-05-17T11:53:07;16.90;99.90
20726;DHT22;10524;48.132;8.518;2023-05-17T11:55:40;15.60;99.90
20726;DHT22;10524;48.132;8.518;2023-05-17T11:58:10;14.10;99.90
20726;DHT22;10524;48.132;8.518;2023-05-17T12:00:37;13.80;99.90
20726;DHT22;10524;48.132;8.518;2023-05-17T12:03:28;15.00;99.90
20726;DHT22;10524;48.132;8.518;2023-05-17T12:06:08;15.20;99.90
20726;DHT22;10524;48.132;8.518;2023-05-17T12:08:35;15.30;99.90
20726;DHT22;10524;48.132;8.518;2023-05-17T12:11:02;15.30;99.90
20726;DHT22;10524;48.132;8.518;2023-05-17T12:13:29;14.40;99.90
20726;DHT22;10524;48.132;8.518;2023-05-17T12:15:57;14.60;99.90
20726;DHT22;10524;48.132;8.518;2023-05-17T12:18:36;16.40;99.90
20726;DHT22;10524;48.132;8.518;2023-05-17T12:21:03;18.10;99.90
20726;DHT22;10524;48.132;8.518;2023-05-17T12:26:16;18.90;99.90
20726;DHT22;10524;48.132;8.518;2023-05-17T12:28:52;16.80;99.90
20726;DHT22;10524;48.132;8.518;2023-05-17T12:31:40;14.90;99.90
20726;DHT22;10524;48.132;8.518;2023-05-17T12:34:07;14.40;99.90
20726;DHT22;10524;48.132;8.518;2023-05-17T12:36:34;14.50;99.90
20726;DHT22;10524;48.132;8.518;2023-05-17T12:39:02;14.40;99.90
20726;DHT22;10524;48.132;8.518;2023-05-17T12:41:31;14.80;99.90
20726;DHT22;10524;48.132;8.518;2023-05-17T12:43:56;14.70;99.90
20726;DHT22;10524;48.132;8.518;2023-05-17T12:46:22;14.50;99.90
20726;DHT22;10524;48.132;8.518;2023-05-17T12:48:50;14.70;99.90
20726;DHT22;10524;48.132;8.518;2023-05-17T12:51:17;15.00;99.90
20726;DHT22;10524;48.132;8.518;2023-05-17T12:53:47;14.50;99.90
20726;DHT22;10524;48.132;8.518;2023-05-17T12:56:15;14.60;99.90
20726;DHT22;10524;48.132;8.518;2023-05-17T12:58:41;13.80;99.90
20726;DHT22;10524;48.132;8.518;2023-05-17T13:01:06;12.80;99.90
20726;DHT22;10524;48.132;8.518;2023-05-17T13:03:35;12.40;99.90
20726;DHT22;10524;48.132;8.518;2023-05-17T13:06:05;12.90;99.90
20726;DHT22;10524;48.132;8.518;2023-05-17T13:08:32;13.60;99.90
20726;DHT22;10524;48.132;8.518;2023-05-17T13:11:12;15.50;99.90
20726;DHT22;10524;48.132;8.518;2023-05-17T13:13:38;16.30;99.90
20726;DHT22;10524;48.132;8.518;2023-05-17T13:16:05;15.80;99.90
20726;DHT22;10524;48.132;8.518;2023-05-17T13:18:31;14.50;99.90
20726;DHT22;10524;48.132;8.518;2023-05-17T13:21:10;13.40;99.90
20726;DHT22;10524;48.132;8.518;2023-05-17T13:23:42;13.50;99.90
20726;DHT22;10524;48.132;8.518;2023-05-17T13:26:08;14.20;99.90
20726;DHT22;10524;48.132;8.518;2023-05-17T13:28:34;14.70;99.90
20726;DHT22;10524;48.132;8.518;2023-05-17T13:30:59;13.90;99.90
20726;DHT22;10524;48.132;8.518;2023-05-17T13:33:25;13.40;99.90
20726;DHT22;10524;48.132;8.518;2023-05-17T13:35:52;13.80;99.90
20726;DHT22;10524;48.132;8.518;2023-05-17T13:38:17;14.70;99.90
20726;DHT22;10524;48.132;8.518;2023-05-17T13:40:43;15.10;99.90
20726;DHT22;10524;48.132;8.518;2023-05-17T13:43:08;14.80;99.90
20726;DHT22;10524;48.132;8.518;2023-05-17T13:45:34;15.50;99.90
20726;DHT22;10524;48.132;8.518;2023-05-17T13:48:01;15.60;99.90
20726;DHT22;10524;48.132;8.518;2023-05-17T13:50:26;15.30;99.90
20726;DHT22;10524;48.132;8.518;2023-05-17T13:52:52;15.60;99.90
20726;DHT22;10524;48.132;8.518;2023-05-17T13:55:18;16.90;99.90
20726;DHT22;10524;48.132;8.518;2023-05-17T13:57:43;16.60;99.90
20726;DHT22;10524;48.132;8.518;2023-05-17T14:00:10;15.20;99.90
20726;DHT22;10524;48.132;8.518;2023-05-17T14:02:36;13.30;99.90
20726;DHT22;10524;48.132;8.518;2023-05-17T14:05:02;12.40;99.90
20726;DHT22;10524;48.132;8.518;2023-05-17T14:07:29;11.90;99.90
20726;DHT22;10524;48.132;8.518;2023-05-17T14:09:54;12.80;99.90
20726;DHT22;10524;48.132;8.518;2023-05-17T14:12:20;13.90;99.90
20726;DHT22;10524;48.132;8.518;2023-05-17T14:14:45;14.40;99.90
20726;DHT22;10524;48.132;8.518;2023-05-17T14:17:11;15.70;99.90
20726;DHT22;10524;48.132;8.518;2023-05-17T14:19:37;16.70;99.90
20726;DHT22;10524;48.132;8.518;2023-05-17T14:22:02;16.50;99.90
20726;DHT22;10524;48.132;8.518;2023-05-17T14:24:28;16.50;99.90
20726;DHT22;10524;48.132;8.518;2023-05-17T14:26:54;15.70;99.90
20726;DHT22;10524;48.132;8.518;2023-05-17T14:29:20;16.00;99.90
20726;DHT22;10524;48.132;8.518;2023-05-17T14:31:46;15.40;99.90
20726;DHT22;10524;48.132;8.518;2023-05-17T14:34:11;15.60;99.90
20726;DHT22;10524;48.132;8.518;2023-05-17T14:36:37;15.50;99.90
20726;DHT22;10524;48.132;8.518;2023-05-17T14:39:03;14.60;99.90
20726;DHT22;10524;48.132;8.518;2023-05-17T14:41:30;14.00;99.90
20726;DHT22;10524;48.132;8.518;2023-05-17T14:43:55;13.80;99.90
20726;DHT22;10524;48.132;8.518;2023-05-17T14:46:21;13.70;99.90
20726;DHT22;10524;48.132;8.518;2023-05-17T14:48:47;13.90;99.90
20726;DHT22;10524;48.132;8.518;2023-05-17T14:51:16;13.80;99.90
20726;DHT22;10524;48.132;8.518;2023-05-17T14:53:43;14.20;99.90
20726;DHT22;10524;48.132;8.518;2023-05-17T14:56:08;14.40;99.90
20726;DHT22;10524;48.132;8.518;2023-05-17T14:58:34;14.30;99.90
20726;DHT22;10524;48.132;8.518;2023-05-17T15:01:00;14.10;99.90
20726;DHT22;10524;48.132;8.518;2023-05-17T15:03:26;13.70;99.90
20726;DHT22;10524;48.132;8.518;2023-05-17T15:05:55;12.80;99.90
20726;DHT22;10524;48.132;8.518;2023-05-17T15:08:22;12.60;99.90
20726;DHT22;10524;48.132;8.518;2023-05-17T15:10:51;12.20;99.90
20726;DHT22;10524;48.132;8.518;2023-05-17T15:13:18;12.50;99.90
20726;DHT22;10524;48.132;8.518;2023-05-17T15:15:44;13.00;99.90
20726;DHT22;10524;48.132;8.518;2023-05-17T15:18:11;13.30;99.90
20726;DHT22;10524;48.132;8.518;2023-05-17T15:20:38;13.80;99.90
20726;DHT22;10524;48.132;8.518;2023-05-17T15:23:04;13.80;99.90
20726;DHT22;10524;48.132;8.518;2023-05-17T15:25:30;14.00;99.90
20726;DHT22;10524;48.132;8.518;2023-05-17T15:27:56;13.80;99.90
20726;DHT22;10524;48.132;8.518;2023-05-17T15:30:22;14.20;99.90
20726;DHT22;10524;48.132;8.518;2023-05-17T15:32:58;14.00;99.90
20726;DHT22;10524;48.132;8.518;2023-05-17T15:35:24;14.30;99.90
20726;DHT22;10524;48.132;8.518;2023-05-17T15:37:52;14.00;99.90
20726;DHT22;10524;48.132;8.518;2023-05-17T15:40:18;13.80;99.90
20726;DHT22;10524;48.132;8.518;2023-05-17T15:42:47;13.80;99.90
20726;DHT22;10524;48.132;8.518;2023-05-17T15:45:14;13.40;99.90
20726;DHT22;10524;48.132;8.518;2023-05-17T15:47:39;13.20;99.90
20726;DHT22;10524;48.132;8.518;2023-05-17T15:50:06;13.20;99.90
20726;DHT22;10524;48.132;8.518;2023-05-17T15:52:34;13.30;99.90
20726;DHT22;10524;48.132;8.518;2023-05-17T15:55:00;13.30;99.90
20726;DHT22;10524;48.132;8.518;2023-05-17T15:57:26;13.30;99.90
20726;DHT22;10524;48.132;8.518;2023-05-17T15:59:54;13.20;99.90
20726;DHT22;10524;48.132;8.518;2023-05-17T16:02:21;13.10;99.90